Terminal Aerodrome Forecast
Issued by NWS King Salmon, AK

Home | Current Version | Previous Version | Text Only | Print | Product List | Glossary On
Versions: 1 2 3 4 5 6 7 8 9 10 11 12 13 14 15 16 17
000
FTAK31 PANC 162324
TAFAKN
TAF
PAKN 162324Z 1700/1724 20012KT 6SM -SHRA SCT018 OVC021
      TEMPO 1700/1703 20011G20KT 2SM -SHRA BR BKN018
     FM170300 22010KT P6SM -SHRA FEW005 OVC018
     FM170600 20008KT P6SM -SHRA SCT005 OVC012
     FM171400 19006KT P6SM VCSH SCT005 OVC012=

USA.gov is the U.S. government's official web portal to all federal, state and local government web resources and services.